Valle Di Andalusia — IBTJ — position and weather

sailwx.info

Track history (hours):
 
Tides and Currents Weather Stations Pressure Air Temp Water Temp Dewpoint Dewpoint Depression Visibility Wind Speed Wind Dir Waves Ship Positions

Valle Di Andalusia

Last reported at 2016-Jul-28 23:08 UTC. Time now 2016-Jul-29 05:55 UTC.
Position N 37°45' E 016°46'.

Length 176 m; draft 8.4 m.

Type: Ship (hazmat cat D). MMSI: 247046200.

Date/timePositionNaut miles runAvg speedWind from/ knotsBaromVisibWave heightAir tempDewpointWater temp
2016-Jul-28 23:08N 37°45' E 016°46'713.0
2016-Jul-28 22:33N 37°39' E 016°41'1812.8
2016-Jul-28 21:08N 37°24' E 016°29'812.7
2016-Jul-28 20:32N 37°17' E 016°24'1212.1
2016-Jul-28 19:31N 37°08' E 016°14'1212.6
2016-Jul-28 18:33N 36°58' E 016°06'1312.6
2016-Jul-28 17:33N 36°47' E 015°57'1212.5
2016-Jul-28 16:34N 36°37' E 015°48'3812.7
2016-Jul-28 13:34N 36°05' E 015°22'1212.4
2016-Jul-28 12:34N 35°55' E 015°14'1212.4
2016-Jul-28 11:34N 35°45' E 015°05'1312.7
2016-Jul-28 10:33N 35°34' E 014°57'1312.6
2016-Jul-28 09:31N 35°22' E 014°49'1212.6
2016-Jul-28 08:33N 35°12' E 014°42'1312.8
2016-Jul-28 07:33N 35°03' E 014°30'1612.9
2016-Jul-28 06:21N 34°50' E 014°20'1112.7
2016-Jul-28 05:29N 34°41' E 014°12'1212.5
2016-Jul-28 04:30N 34°31' E 014°04'1612.7
2016-Jul-28 03:15N 34°17' E 013°54'913.0
2016-Jul-28 02:33N 34°10' E 013°48'4313.6
2016-Jul-27 23:23N 33°34' E 013°18'1613.6
2016-Jul-27 22:14N 33°21' E 013°08'913.7
2016-Jul-27 21:33N 33°13' E 013°02'1313.5
2016-Jul-27 20:33N 33°02' E 012°53'1413.1
2016-Jul-27 19:32N 32°52' E 012°43'4 4.6
2016-Jul-27 18:34N 32°49' E 012°39'2 2.4
2016-Jul-27 17:34N 32°48' E 012°42'0 0.0
2016-Jul-27 16:31N 32°48' E 012°42'0 0.0
2016-Jul-27 15:33N 32°48' E 012°42'0 0.0
2016-Jul-27 14:19N 32°48' E 012°42'0 0.0
2016-Jul-27 13:29N 32°48' E 012°42'0 0.0
2016-Jul-27 12:17N 32°48' E 012°42'0 0.0
2016-Jul-26 17:16N 32°48' E 012°42'0 0.0
2016-Jul-25 09:24N 32°48' E 012°42'0 0.0
2016-Jul-25 08:28N 32°48' E 012°42'2 1.7
2016-Jul-25 07:34N 32°49' E 012°40'0 0.4
2016-Jul-25 06:25N 32°49' E 012°39'0 0.2
2016-Jul-25 05:29N 32°49' E 012°40'0 0.0
2016-Jul-25 04:31N 32°49' E 012°40'0 0.0
2016-Jul-25 03:20N 32°49' E 012°40'0 0.0
2016-Jul-25 02:31N 32°49' E 012°40'0 0.0
2016-Jul-25 01:31N 32°49' E 012°40'0 0.0
2016-Jul-24 21:34N 32°49' E 012°40'8 6.3
2016-Jul-24 20:14N 32°56' E 012°45'912.9
2016-Jul-24 19:30N 33°04' E 012°51'1212.8
2016-Jul-24 18:33N 33°14' E 012°58'3112.7
2016-Jul-24 16:07N 33°40' E 013°18'12713.3
2016-Jul-24 06:33N 35°28' E 014°40'1413.8
2016-Jul-24 05:33N 35°39' E 014°50'1413.7
2016-Jul-24 04:33N 35°51' E 014°58'2813.7
2016-Jul-24 02:29N 36°18' E 015°08'1313.9
2016-Jul-24 01:31N 36°31' E 015°13'1313.9
2016-Jul-24 00:33N 36°43' E 015°20'2813.9
2016-Jul-23 22:33N 37°08' E 015°38'1313.0
2016-Jul-23 21:34N 37°18' E 015°46'1312.7
2016-Jul-23 20:34N 37°30' E 015°54'1513.5
2016-Jul-23 19:27N 37°43' E 016°03'22910.8
2016-Jul-22 22:16N 41°26' E 017°14'1014.0
2016-Jul-22 21:33N 41°33' E 017°04'5713.8
2016-Jul-22 17:26N 42°13' E 016°10'1213.7
2016-Jul-22 16:33N 42°21' E 015°58'1413.7
2016-Jul-22 15:33N 42°30' E 015°44'1513.6
2016-Jul-22 14:26N 42°40' E 015°29'1713.6
2016-Jul-22 13:09N 42°51' E 015°10'813.7
2016-Jul-22 12:34N 42°56' E 015°02'3313.4
2016-Jul-22 10:07N 43°18' E 014°28'813.5
2016-Jul-22 09:33N 43°23' E 014°20'1913.3
2016-Jul-22 08:07N 43°35' E 014°00'813.3
2016-Jul-22 07:33N 43°40' E 013°52'20 5.9
2016-Jul-22 04:10N 43°40' E 013°24'0 0.0
2016-Jul-22 03:33N 43°40' E 013°24'0 0.0
2016-Jul-22 02:33N 43°40' E 013°24'0 0.0
2016-Jul-22 01:33N 43°40' E 013°24'0 0.0
2016-Jul-22 00:33N 43°40' E 013°24'0 0.0
2016-Jul-21 23:31N 43°40' E 013°24'0 0.0
2016-Jul-21 21:33N 43°40' E 013°24'0 0.0
2016-Jul-21 20:24N 43°40' E 013°24'0 0.0
2016-Jul-21 19:33N 43°40' E 013°24'0 0.0
2016-Jul-21 18:33N 43°40' E 013°24'0 0.0
2016-Jul-21 17:33N 43°40' E 013°24'0 0.0
2016-Jul-21 16:33N 43°40' E 013°24'0 0.0
2016-Jul-21 15:33N 43°40' E 013°24'0 0.0
2016-Jul-21 14:33N 43°40' E 013°24'0 0.0
2016-Jul-21 13:33N 43°40' E 013°24'0 0.0
2016-Jul-21 12:33N 43°40' E 013°24'0 0.0
2016-Jul-21 11:16N 43°40' E 013°24'0 0.0
2016-Jul-21 10:32N 43°40' E 013°24'0 0.0
2016-Jul-21 09:31N 43°40' E 013°24'0 0.0
2016-Jul-21 08:31N 43°40' E 013°24'0 0.0
2016-Jul-21 06:33N 43°40' E 013°24'0 0.0
2016-Jul-21 05:33N 43°40' E 013°24'0 0.0
2016-Jul-21 04:33N 43°40' E 013°24'0 0.0
2016-Jul-21 02:26N 43°40' E 013°24'0 0.0
2016-Jul-21 01:33N 43°40' E 013°24'0 0.0
2016-Jul-21 00:32N 43°40' E 013°24'0 0.0
2016-Jul-20 23:32N 43°40' E 013°24'0 0.0
2016-Jul-20 22:31N 43°40' E 013°24'0 0.0
2016-Jul-20 21:29N 43°40' E 013°24'0 0.0
2016-Jul-20 16:33N 43°40' E 013°24'2 1.5
2016-Jul-20 15:33N 43°40' E 013°26'0 0.0
2016-Jul-20 14:34N 43°40' E 013°26'0 0.0
2016-Jul-20 13:33N 43°40' E 013°26'0 0.0
2016-Jul-20 12:34N 43°40' E 013°26'3 2.7
2016-Jul-20 11:33N 43°40' E 013°30'1211.1
2016-Jul-20 10:27N 43°44' E 013°47'1111.9
2016-Jul-20 09:33N 43°38' E 013°59'1211.9
2016-Jul-20 08:33N 43°32' E 014°13'  
Track history (hours):
 
Tides and Currents Weather Stations Pressure Air Temp Water Temp Dewpoint Dewpoint Depression Visibility Wind Speed Wind Dir Waves Ship Positions

Valle Di Andalusia

Last reported at 2016-Jul-28 23:08 UTC. Time now 2016-Jul-29 05:55 UTC.
Position N 37°45' E 016°46'.

Length 176 m; draft 8.4 m.

Type: Ship (hazmat cat D). MMSI: 247046200.

Date/timePositionNaut miles runAvg speedWind from/ knotsBaromVisibWave heightAir tempDewpointWater temp
2016-Jul-28 23:08N 37°45' E 016°46'713.0
2016-Jul-28 22:33N 37°39' E 016°41'1812.8
2016-Jul-28 21:08N 37°24' E 016°29'812.7
2016-Jul-28 20:32N 37°17' E 016°24'1212.1
2016-Jul-28 19:31N 37°08' E 016°14'1212.6
2016-Jul-28 18:33N 36°58' E 016°06'1312.6
2016-Jul-28 17:33N 36°47' E 015°57'1212.5
2016-Jul-28 16:34N 36°37' E 015°48'3812.7
2016-Jul-28 13:34N 36°05' E 015°22'1212.4
2016-Jul-28 12:34N 35°55' E 015°14'1212.4
2016-Jul-28 11:34N 35°45' E 015°05'1312.7
2016-Jul-28 10:33N 35°34' E 014°57'1312.6
2016-Jul-28 09:31N 35°22' E 014°49'1212.6
2016-Jul-28 08:33N 35°12' E 014°42'1312.8
2016-Jul-28 07:33N 35°03' E 014°30'1612.9
2016-Jul-28 06:21N 34°50' E 014°20'1112.7
2016-Jul-28 05:29N 34°41' E 014°12'1212.5
2016-Jul-28 04:30N 34°31' E 014°04'1612.7
2016-Jul-28 03:15N 34°17' E 013°54'913.0
2016-Jul-28 02:33N 34°10' E 013°48'4313.6
2016-Jul-27 23:23N 33°34' E 013°18'1613.6
2016-Jul-27 22:14N 33°21' E 013°08'913.7
2016-Jul-27 21:33N 33°13' E 013°02'1313.5
2016-Jul-27 20:33N 33°02' E 012°53'1413.1
2016-Jul-27 19:32N 32°52' E 012°43'4 4.6
2016-Jul-27 18:34N 32°49' E 012°39'2 2.4
2016-Jul-27 17:34N 32°48' E 012°42'0 0.0
2016-Jul-27 16:31N 32°48' E 012°42'0 0.0
2016-Jul-27 15:33N 32°48' E 012°42'0 0.0
2016-Jul-27 14:19N 32°48' E 012°42'0 0.0
2016-Jul-27 13:29N 32°48' E 012°42'0 0.0
2016-Jul-27 12:17N 32°48' E 012°42'0 0.0
2016-Jul-26 17:16N 32°48' E 012°42'0 0.0
2016-Jul-25 09:24N 32°48' E 012°42'0 0.0
2016-Jul-25 08:28N 32°48' E 012°42'2 1.7
2016-Jul-25 07:34N 32°49' E 012°40'0 0.4
2016-Jul-25 06:25N 32°49' E 012°39'0 0.2
2016-Jul-25 05:29N 32°49' E 012°40'0 0.0
2016-Jul-25 04:31N 32°49' E 012°40'0 0.0
2016-Jul-25 03:20N 32°49' E 012°40'0 0.0
2016-Jul-25 02:31N 32°49' E 012°40'0 0.0
2016-Jul-25 01:31N 32°49' E 012°40'0 0.0
2016-Jul-24 21:34N 32°49' E 012°40'8 6.3
2016-Jul-24 20:14N 32°56' E 012°45'912.9
2016-Jul-24 19:30N 33°04' E 012°51'1212.8
2016-Jul-24 18:33N 33°14' E 012°58'3112.7
2016-Jul-24 16:07N 33°40' E 013°18'12713.3
2016-Jul-24 06:33N 35°28' E 014°40'1413.8
2016-Jul-24 05:33N 35°39' E 014°50'1413.7
2016-Jul-24 04:33N 35°51' E 014°58'2813.7
2016-Jul-24 02:29N 36°18' E 015°08'1313.9
2016-Jul-24 01:31N 36°31' E 015°13'1313.9
2016-Jul-24 00:33N 36°43' E 015°20'2813.9
2016-Jul-23 22:33N 37°08' E 015°38'1313.0
2016-Jul-23 21:34N 37°18' E 015°46'1312.7
2016-Jul-23 20:34N 37°30' E 015°54'1513.5
2016-Jul-23 19:27N 37°43' E 016°03'22910.8
2016-Jul-22 22:16N 41°26' E 017°14'1014.0
2016-Jul-22 21:33N 41°33' E 017°04'5713.8
2016-Jul-22 17:26N 42°13' E 016°10'1213.7
2016-Jul-22 16:33N 42°21' E 015°58'1413.7
2016-Jul-22 15:33N 42°30' E 015°44'1513.6
2016-Jul-22 14:26N 42°40' E 015°29'1713.6
2016-Jul-22 13:09N 42°51' E 015°10'813.7
2016-Jul-22 12:34N 42°56' E 015°02'3313.4
2016-Jul-22 10:07N 43°18' E 014°28'813.5
2016-Jul-22 09:33N 43°23' E 014°20'1913.3
2016-Jul-22 08:07N 43°35' E 014°00'813.3
2016-Jul-22 07:33N 43°40' E 013°52'20 5.9
2016-Jul-22 04:10N 43°40' E 013°24'0 0.0
2016-Jul-22 03:33N 43°40' E 013°24'0 0.0
2016-Jul-22 02:33N 43°40' E 013°24'0 0.0
2016-Jul-22 01:33N 43°40' E 013°24'0 0.0
2016-Jul-22 00:33N 43°40' E 013°24'0 0.0
2016-Jul-21 23:31N 43°40' E 013°24'0 0.0
2016-Jul-21 21:33N 43°40' E 013°24'0 0.0
2016-Jul-21 20:24N 43°40' E 013°24'0 0.0
2016-Jul-21 19:33N 43°40' E 013°24'0 0.0
2016-Jul-21 18:33N 43°40' E 013°24'0 0.0
2016-Jul-21 17:33N 43°40' E 013°24'0 0.0
2016-Jul-21 16:33N 43°40' E 013°24'0 0.0
2016-Jul-21 15:33N 43°40' E 013°24'0 0.0
2016-Jul-21 14:33N 43°40' E 013°24'0 0.0
2016-Jul-21 13:33N 43°40' E 013°24'0 0.0
2016-Jul-21 12:33N 43°40' E 013°24'0 0.0
2016-Jul-21 11:16N 43°40' E 013°24'0 0.0
2016-Jul-21 10:32N 43°40' E 013°24'0 0.0
2016-Jul-21 09:31N 43°40' E 013°24'0 0.0
2016-Jul-21 08:31N 43°40' E 013°24'0 0.0
2016-Jul-21 06:33N 43°40' E 013°24'0 0.0
2016-Jul-21 05:33N 43°40' E 013°24'0 0.0
2016-Jul-21 04:33N 43°40' E 013°24'0 0.0
2016-Jul-21 02:26N 43°40' E 013°24'0 0.0
2016-Jul-21 01:33N 43°40' E 013°24'0 0.0
2016-Jul-21 00:32N 43°40' E 013°24'0 0.0
2016-Jul-20 23:32N 43°40' E 013°24'0 0.0
2016-Jul-20 22:31N 43°40' E 013°24'0 0.0
2016-Jul-20 21:29N 43°40' E 013°24'0 0.0
2016-Jul-20 16:33N 43°40' E 013°24'2 1.5
2016-Jul-20 15:33N 43°40' E 013°26'0 0.0
2016-Jul-20 14:34N 43°40' E 013°26'0 0.0
2016-Jul-20 13:33N 43°40' E 013°26'0 0.0
2016-Jul-20 12:34N 43°40' E 013°26'3 2.7
2016-Jul-20 11:33N 43°40' E 013°30'1211.1
2016-Jul-20 10:27N 43°44' E 013°47'1111.9
2016-Jul-20 09:33N 43°38' E 013°59'1211.9
2016-Jul-20 08:33N 43°32' E 014°13'  

Dump ship's entire track history